createdAt,value
2023-04-06T00:04:24.045Z,9.03
2023-04-06T00:09:27.225Z,8.73
2023-04-06T00:14:31.724Z,8.23
2023-04-06T00:19:35.116Z,8.40
2023-04-06T00:24:38.080Z,8.30
2023-04-06T00:29:43.230Z,8.47
2023-04-06T00:34:46.708Z,8.10
2023-04-06T00:39:52.597Z,8.83
2023-04-06T00:44:59.461Z,9.13
2023-04-06T00:50:02.589Z,9.07
2023-04-06T00:55:07.062Z,8.73
2023-04-06T01:00:18.354Z,9.00
2023-04-06T01:05:26.402Z,9.93
2023-04-06T01:10:33.766Z,8.60
2023-04-06T01:15:50.199Z,9.20
2023-04-06T01:21:00.736Z,9.47
2023-04-06T01:26:06.351Z,9.13
2023-04-06T01:31:10.872Z,9.07
2023-04-06T01:36:27.089Z,8.60
2023-04-06T01:41:44.075Z,10.30
2023-04-06T01:46:51.305Z,9.07
2023-04-06T01:51:56.588Z,9.23
2023-04-06T01:57:03.394Z,9.40
2023-04-06T02:02:30.004Z,10.03
2023-04-06T02:07:40.728Z,9.70
2023-04-06T02:12:45.931Z,9.23
2023-04-06T02:17:56.209Z,9.37
2023-04-06T02:23:01.177Z,9.43
2023-04-06T02:28:06.272Z,10.30
2023-04-06T02:33:09.479Z,9.33
2023-04-06T02:38:19.414Z,9.63
2023-04-06T02:43:23.918Z,9.77
2023-04-06T02:48:32.056Z,10.00
2023-04-06T02:53:35.223Z,9.90
2023-04-06T02:58:40.066Z,11.40
2023-04-06T03:03:43.443Z,11.60
2023-04-06T03:08:53.686Z,11.57
2023-04-06T03:14:01.114Z,11.00
2023-04-06T03:19:04.218Z,11.13
2023-04-06T03:24:10.952Z,11.17
2023-04-06T03:29:15.998Z,10.97
2023-04-06T03:34:19.295Z,10.50
2023-04-06T03:39:22.743Z,10.90
2023-04-06T03:44:30.491Z,12.13
2023-04-06T03:49:33.646Z,11.77
2023-04-06T03:54:38.746Z,11.63
2023-04-06T03:59:43.346Z,12.30
2023-04-06T04:04:46.751Z,12.40
2023-04-06T04:09:52.881Z,12.87
2023-04-06T04:14:58.069Z,12.60
2023-04-06T04:20:01.414Z,12.97
2023-04-06T04:25:04.562Z,12.57
2023-04-06T04:30:12.271Z,11.50
2023-04-06T04:35:15.600Z,12.17
2023-04-06T04:40:19.737Z,13.33
2023-04-06T04:45:31.465Z,12.67
2023-04-06T04:50:39.335Z,12.63
2023-04-06T04:55:42.543Z,11.50
2023-04-06T05:00:51.280Z,13.60
2023-04-06T05:05:55.126Z,12.87
2023-04-06T05:11:01.301Z,12.30
2023-04-06T05:16:09.074Z,12.87
2023-04-06T05:21:14.176Z,12.67
2023-04-06T05:26:28.889Z,12.33
2023-04-06T05:31:40.424Z,12.60
2023-04-06T05:36:43.729Z,13.23
2023-04-06T05:41:55.236Z,12.20
2023-04-06T05:47:14.494Z,12.30
2023-04-06T05:52:21.768Z,13.63
2023-04-06T05:57:26.241Z,12.17
2023-04-06T06:02:32.807Z,12.97
2023-04-06T06:07:36.362Z,12.87
2023-04-06T06:12:39.644Z,13.40
2023-04-06T06:17:45.058Z,12.63
2023-04-06T06:22:49.173Z,12.20
2023-04-06T06:27:56.630Z,13.30
2023-04-06T06:33:01.241Z,13.27
2023-04-06T06:38:06.356Z,13.40
2023-04-06T06:43:10.052Z,12.47
2023-04-06T06:48:40.352Z,11.97
2023-04-06T06:53:43.694Z,13.00
2023-04-06T06:58:47.317Z,12.67
2023-04-06T07:03:52.064Z,12.73
2023-04-06T07:08:55.517Z,12.87
2023-04-06T07:13:58.628Z,12.13
2023-04-06T07:19:04.032Z,13.53
2023-04-06T07:24:08.223Z,14.10
2023-04-06T07:29:12.981Z,14.23
2023-04-06T07:34:17.768Z,13.93
2023-04-06T07:39:21.163Z,13.43
2023-04-06T07:44:24.833Z,15.70
2023-04-06T07:49:29.854Z,14.37
2023-04-06T07:54:33.088Z,14.50
2023-04-06T07:59:36.259Z,13.53
2023-04-06T08:04:40.843Z,13.97
2023-04-06T08:09:43.975Z,15.30
2023-04-06T08:14:47.147Z,15.60
2023-04-06T08:19:51.712Z,15.23
2023-04-06T08:24:55.616Z,15.33
2023-04-06T08:29:58.824Z,15.80
2023-04-06T08:35:03.393Z,15.33
2023-04-06T08:40:07.900Z,15.83
2023-04-06T08:45:11.942Z,15.27
2023-04-06T08:50:18.605Z,16.47
2023-04-06T08:55:21.799Z,16.70
2023-04-06T09:00:25.957Z,16.03
2023-04-06T09:05:32.981Z,17.27
2023-04-06T09:10:36.666Z,18.17
2023-04-06T09:15:40.185Z,18.00
2023-04-06T09:20:44.713Z,17.13
2023-04-06T09:25:47.849Z,15.87
2023-04-06T09:30:51.724Z,15.00
2023-04-06T09:35:56.383Z,15.10
2023-04-06T09:41:01.629Z,14.57
2023-04-06T09:46:06.633Z,13.50
2023-04-06T09:51:16.361Z,11.33
2023-04-06T09:56:26.232Z,10.53
2023-04-06T10:01:32.309Z,9.63
2023-04-06T10:06:37.948Z,9.30
2023-04-06T10:11:41.635Z,8.23
2023-04-06T10:16:45.221Z,7.07
2023-04-06T10:21:55.732Z,7.03
2023-04-06T10:27:04.250Z,8.90
2023-04-06T10:32:07.567Z,6.90
2023-04-06T10:37:16.504Z,6.90
2023-04-06T10:42:19.838Z,7.03
2023-04-06T10:47:23.280Z,7.27
2023-04-06T10:52:27.943Z,6.90
2023-04-06T10:57:32.007Z,6.83
2023-04-06T11:02:35.222Z,7.57
2023-04-06T11:07:41.281Z,7.63
2023-04-06T11:12:44.492Z,6.57
2023-04-06T11:17:47.901Z,7.20
2023-04-06T11:22:54.418Z,7.33
2023-04-06T11:27:57.908Z,7.30
2023-04-06T11:33:04.517Z,7.00
2023-04-06T11:38:09.102Z,7.40
2023-04-06T11:43:14.105Z,7.00
2023-04-06T11:48:21.909Z,6.90
2023-04-06T11:53:27.035Z,7.43
2023-04-06T11:58:32.132Z,6.93
2023-04-06T12:03:35.564Z,7.27
2023-04-06T12:08:40.967Z,7.47
2023-04-06T12:13:44.323Z,7.13
2023-04-06T12:18:47.798Z,8.13
2023-04-06T12:23:55.771Z,8.27
2023-04-06T12:29:04.001Z,8.17
2023-04-06T12:34:07.319Z,8.27
2023-04-06T12:39:12.224Z,8.43
2023-04-06T12:44:15.405Z,9.07
2023-04-06T12:49:20.177Z,8.60
2023-04-06T12:54:24.654Z,9.27
2023-04-06T12:59:28.123Z,9.27
2023-04-06T13:04:33.572Z,9.10
2023-04-06T13:09:38.550Z,8.57
2023-04-06T13:14:41.932Z,9.50
2023-04-06T13:19:45.184Z,9.27
2023-04-06T13:24:52.643Z,8.73
2023-04-06T13:29:57.220Z,9.50
2023-04-06T13:35:01.858Z,8.47
2023-04-06T13:40:07.433Z,8.87
2023-04-06T13:45:11.753Z,9.37
2023-04-06T13:50:14.990Z,9.73
2023-04-06T13:55:19.612Z,8.47
2023-04-06T14:00:23.774Z,8.70
2023-04-06T14:05:29.014Z,9.40
2023-04-06T14:10:33.648Z,9.17
2023-04-06T14:15:37.557Z,9.27
2023-04-06T14:20:41.108Z,9.50
2023-04-06T14:25:45.652Z,9.47
2023-04-06T14:30:49.004Z,8.13
2023-04-06T14:35:52.063Z,9.23
2023-04-06T14:40:57.117Z,8.77
2023-04-06T14:46:02.795Z,8.83
2023-04-06T14:51:06.003Z,8.43
2023-04-06T14:56:10.801Z,8.63
2023-04-06T15:01:13.915Z,9.60
2023-04-06T15:06:18.716Z,8.67
2023-04-06T15:11:24.003Z,8.80
2023-04-06T15:16:27.414Z,8.67
2023-04-06T15:21:31.336Z,8.37
2023-04-06T15:26:35.861Z,8.80
2023-04-06T15:31:40.147Z,9.37
2023-04-06T15:36:44.677Z,10.40
2023-04-06T15:41:49.472Z,11.17
2023-04-06T15:46:53.716Z,9.77
2023-04-06T15:57:01.496Z,9.57
2023-04-06T16:02:04.651Z,9.77
2023-04-06T16:07:07.932Z,9.00
2023-04-06T16:12:13.194Z,9.37
2023-04-06T16:17:16.814Z,8.33
2023-04-06T16:22:20.942Z,8.80
2023-04-06T16:27:39.452Z,9.20
2023-04-06T16:32:47.333Z,8.27
2023-04-06T16:37:54.232Z,8.57
2023-04-06T16:42:58.661Z,8.87
2023-04-06T16:48:01.846Z,7.57
2023-04-06T16:53:05.035Z,8.20
2023-04-06T16:58:09.934Z,8.50
2023-04-06T17:03:13.289Z,8.73
2023-04-06T17:08:16.782Z,8.90
2023-04-06T17:13:21.623Z,8.13
2023-04-06T17:18:24.794Z,8.77
2023-04-06T17:23:28.249Z,9.10
2023-04-06T17:28:33.157Z,9.17
2023-04-06T17:33:36.717Z,9.13
2023-04-06T17:38:44.063Z,9.80
2023-04-06T17:43:51.201Z,9.00
2023-04-06T17:48:54.514Z,11.50
2023-04-06T17:53:57.842Z,10.20
2023-04-06T17:59:02.732Z,10.90
2023-04-06T18:04:05.886Z,11.30
2023-04-06T18:09:09.514Z,13.43
2023-04-06T18:14:16.135Z,13.80
2023-04-06T18:19:19.828Z,13.80
2023-04-06T18:24:37.398Z,14.47
2023-04-06T18:29:47.539Z,13.40
2023-04-06T18:34:55.603Z,13.30
2023-04-06T18:39:59.119Z,14.13
2023-04-06T18:45:03.731Z,15.27
2023-04-06T18:50:07.712Z,13.57
2023-04-06T18:55:11.281Z,12.57
2023-04-06T19:00:17.391Z,12.87
2023-04-06T19:05:22.394Z,15.13
2023-04-06T19:10:25.847Z,14.10
2023-04-06T19:15:30.351Z,14.17
2023-04-06T19:20:35.272Z,14.43
2023-04-06T19:25:38.544Z,15.67
2023-04-06T19:30:43.315Z,20.00
2023-04-06T19:35:46.755Z,18.63
2023-04-06T19:40:50.067Z,17.73
2023-04-06T19:45:55.009Z,20.13
2023-04-06T19:50:58.302Z,21.63
2023-04-06T19:56:01.384Z,17.07
2023-04-06T20:01:06.276Z,18.90
2023-04-06T20:06:09.626Z,21.60
2023-04-06T20:11:14.157Z,19.60
2023-04-06T20:16:18.627Z,18.43
2023-04-06T20:21:21.912Z,15.50
2023-04-06T20:26:25.149Z,13.77
2023-04-06T20:31:30.411Z,13.07
2023-04-06T20:36:34.126Z,11.80
2023-04-06T20:41:39.897Z,11.33
2023-04-06T20:46:45.994Z,9.67
2023-04-06T20:51:49.770Z,7.93
2023-04-06T20:56:52.958Z,7.33
2023-04-06T21:01:58.227Z,6.17
2023-04-06T21:07:01.660Z,5.83
2023-04-06T21:12:07.562Z,6.73
2023-04-06T21:17:12.698Z,5.57
2023-04-06T21:22:16.175Z,5.37
2023-04-06T21:27:19.294Z,4.30
2023-04-06T21:32:23.964Z,4.27
2023-04-06T21:37:27.282Z,4.10
2023-04-06T21:42:30.495Z,4.40
2023-04-06T21:47:36.025Z,4.17
2023-04-06T21:52:39.297Z,3.83
2023-04-06T21:57:42.831Z,3.97
2023-04-06T22:02:47.795Z,4.70
2023-04-06T22:07:54.950Z,4.50
2023-04-06T22:12:58.343Z,4.60
2023-04-06T22:18:03.281Z,4.20
2023-04-06T22:23:06.513Z,4.80
2023-04-06T22:28:09.685Z,4.53
2023-04-06T22:33:14.118Z,4.97
2023-04-06T22:38:17.298Z,5.23
2023-04-06T22:43:20.386Z,4.90
2023-04-06T22:48:26.072Z,5.93
2023-04-06T22:53:29.511Z,5.10
2023-04-06T22:58:32.940Z,4.57
2023-04-06T23:03:37.438Z,5.87
2023-04-06T23:08:40.797Z,4.60
2023-04-06T23:13:43.922Z,4.90
2023-04-06T23:18:48.702Z,4.47
2023-04-06T23:23:51.663Z,4.23
2023-04-06T23:28:55.110Z,4.20
2023-04-06T23:33:59.552Z,4.03
2023-04-06T23:39:02.652Z,4.40
2023-04-06T23:44:05.920Z,4.20
2023-04-06T23:49:10.333Z,5.10
2023-04-06T23:54:14.152Z,5.10
2023-04-06T23:59:17.358Z,5.30
